Time;durP1;ratioP1;P1;durP2;ratioP2;P2;SDS_P1;SDS_P2;PMS_P1;PMS_P2;Temp;Humidity;BMP_temperature;BMP_pressure;BME280_temperature;BME280_humidity;BME280_pressure;Samples;Min_cycle;Max_cycle;Signal;HPM_P1;HPM_P2
2021/01/11 00:01:30;;;;;;;32.25;17.13;;;-2.80;62.70;;;;;;5072288;28;20250;-67
2021/01/11 00:03:57;;;;;;;36.72;18.27;;;-2.90;62.60;;;;;;5076975;28;20531;-67
2021/01/11 00:06:25;;;;;;;28.77;14.82;;;-3.00;62.20;;;;;;5092450;28;20193;-67
2021/01/11 00:08:52;;;;;;;31.10;16.20;;;-3.10;61.80;;;;;;5088703;28;20236;-70
2021/01/11 00:11:22;;;;;;;31.00;15.38;;;-3.20;61.60;;;;;;5072656;28;20670;-67
2021/01/11 00:13:54;;;;;;;28.60;15.98;;;-3.20;60.90;;;;;;5074326;28;20177;-67
2021/01/11 00:16:21;;;;;;;27.15;15.02;;;-3.30;61.30;;;;;;5092546;28;20224;-67
2021/01/11 00:18:56;;;;;;;33.78;16.05;;;-3.40;61.10;;;;;;5090416;28;20197;-67
2021/01/11 00:21:23;;;;;;;25.88;15.60;;;-3.40;60.90;;;;;;5072312;28;20259;-67
2021/01/11 00:23:51;;;;;;;30.42;16.02;;;-3.40;61.60;;;;;;5073258;28;20316;-67
2021/01/11 00:26:26;;;;;;;27.63;14.43;;;-3.50;60.30;;;;;;5092196;28;20674;-67
2021/01/11 00:28:55;;;;;;;29.30;15.80;;;-3.60;60.10;;;;;;5090540;28;20185;-68
2021/01/11 00:31:26;;;;;;;29.77;15.60;;;-3.70;60.30;;;;;;5072136;28;20263;-68
2021/01/11 00:33:54;;;;;;;30.15;14.23;;;-3.80;60.80;;;;;;5072382;28;20222;-68
2021/01/11 00:36:22;;;;;;;31.13;15.38;;;-3.80;61.10;;;;;;5091929;28;20627;-68
2021/01/11 00:38:50;;;;;;;30.33;16.08;;;-3.80;61.20;;;;;;5092247;28;20200;-70
2021/01/11 00:41:18;;;;;;;33.60;17.40;;;-3.80;61.30;;;;;;5092466;28;20185;-67
2021/01/11 00:43:46;;;;;;;32.90;16.05;;;-3.80;60.80;;;;;;5096082;28;20189;-67
2021/01/11 00:46:23;;;;;;;27.42;14.95;;;-3.90;60.30;;;;;;5076257;28;20273;-68
2021/01/11 00:48:50;;;;;;;30.30;15.98;;;-3.90;60.30;;;;;;5075826;28;20197;-67
2021/01/11 00:51:18;;;;;;;35.22;15.63;;;-3.90;61.10;;;;;;5094694;28;20185;-67
2021/01/11 00:53:47;;;;;;;37.55;16.63;;;-3.90;60.30;;;;;;5096058;28;20193;-67
2021/01/11 00:56:16;;;;;;;25.77;15.85;;;-4.00;59.80;;;;;;5077136;28;20186;-67
2021/01/11 00:58:45;;;;;;;26.98;14.75;;;-4.00;59.60;;;;;;5075567;28;20194;-67
2021/01/11 01:01:17;;;;;;;30.05;16.58;;;-4.10;60.10;;;;;;5092292;28;20185;-68
2021/01/11 01:03:44;;;;;;;28.30;15.48;;;-4.10;60.20;;;;;;5096020;28;20271;-68
2021/01/11 01:06:13;;;;;;;33.75;16.23;;;-4.20;59.60;;;;;;5078496;28;20652;-68
2021/01/11 01:08:42;;;;;;;25.65;15.43;;;-4.20;59.80;;;;;;5075360;28;20194;-68
2021/01/11 01:11:10;;;;;;;24.45;14.52;;;-4.20;59.00;;;;;;5090922;28;20192;-67
2021/01/11 01:13:38;;;;;;;27.67;13.00;;;-4.40;58.60;;;;;;5095671;28;20271;-67
2021/01/11 01:16:05;;;;;;;29.90;13.25;;;-4.50;58.60;;;;;;5080663;28;20186;-67
2021/01/11 01:18:34;;;;;;;28.85;14.65;;;-4.50;58.20;;;;;;5075100;28;20284;-69
2021/01/11 01:21:01;;;;;;;27.52;13.50;;;-4.60;58.30;;;;;;5088436;28;20196;-69
2021/01/11 01:23:34;;;;;;;30.55;15.43;;;-4.50;58.20;;;;;;5095383;28;20714;-67
2021/01/11 01:26:10;;;;;;;29.88;14.35;;;-4.60;58.30;;;;;;5082350;28;20189;-67
2021/01/11 01:28:38;;;;;;;34.33;16.10;;;-4.60;58.80;;;;;;5075264;28;20189;-67
2021/01/11 01:31:09;;;;;;;31.25;15.85;;;-4.60;59.00;;;;;;5087621;28;20188;-69
2021/01/11 01:33:37;;;;;;;25.67;13.25;;;-4.60;59.20;;;;;;5095076;28;20266;-67
2021/01/11 01:36:09;;;;;;;31.88;14.90;;;-4.60;59.00;;;;;;5082441;28;20663;-67
2021/01/11 01:38:38;;;;;;;26.80;13.32;;;-4.60;58.70;;;;;;5075102;28;20693;-68
2021/01/11 01:41:05;;;;;;;30.13;15.13;;;-4.70;58.50;;;;;;5086178;28;20196;-68
2021/01/11 01:43:32;;;;;;;26.00;14.55;;;-4.70;58.70;;;;;;5089995;28;20213;-67
2021/01/11 01:46:08;;;;;;;26.25;13.30;;;-4.80;58.70;;;;;;5078622;28;20651;-67
2021/01/11 01:48:37;;;;;;;26.30;12.82;;;-4.90;59.30;;;;;;5095117;28;20193;-67
2021/01/11 01:51:05;;;;;;;31.75;16.33;;;-4.90;59.40;;;;;;5090984;28;20248;-67
2021/01/11 01:53:34;;;;;;;30.63;15.80;;;-4.90;59.70;;;;;;5073531;28;20204;-68
2021/01/11 01:56:02;;;;;;;30.95;13.60;;;-4.90;60.50;;;;;;5077057;28;20546;-68
2021/01/11 01:58:31;;;;;;;30.48;16.10;;;-4.90;60.70;;;;;;5094720;28;20189;-67
2021/01/11 02:00:59;;;;;;;26.17;14.10;;;-4.90;61.30;;;;;;5092302;28;20201;-67
2021/01/11 02:03:26;;;;;;;24.65;14.00;;;-4.90;60.70;;;;;;5074409;28;20221;-67
2021/01/11 02:05:53;;;;;;;26.23;14.40;;;-5.00;59.20;;;;;;5074446;28;20546;-67
2021/01/11 02:08:25;;;;;;;26.45;13.70;;;-5.10;58.90;;;;;;5094357;28;20270;-67
2021/01/11 02:11:11;;;;;;;26.15;12.93;;;-5.20;59.10;;;;;;5093926;28;20201;-70
2021/01/11 02:14:06;;;;;;;21.40;12.77;;;-5.40;58.50;;;;;;5071632;28;20542;-67
2021/01/11 02:16:42;;;;;;;27.95;14.60;;;-5.60;58.60;;;;;;5078515;28;20577;-67
2021/01/11 02:19:56;;;;;;;26.38;13.15;;;-5.60;57.90;;;;;;5094240;28;20263;-67
2021/01/11 02:22:29;;;;;;;27.25;13.32;;;-5.70;57.60;;;;;;5082447;28;20213;-67
2021/01/11 02:25:26;;;;;;;23.75;12.68;;;-5.70;58.40;;;;;;5073829;28;20662;-67
2021/01/11 02:27:56;;;;;;;28.48;12.32;;;-5.70;58.70;;;;;;5088302;28;20196;-67
2021/01/11 02:30:36;;;;;;;26.77;13.30;;;-5.70;58.80;;;;;;5093830;28;20197;-67
2021/01/11 02:33:09;;;;;;;17.42;10.20;;;-5.70;58.40;;;;;;5077943;28;20276;-67
2021/01/11 02:36:07;;;;;;;32.00;14.20;;;-5.70;58.30;;;;;;5073817;28;20193;-67
2021/01/11 02:38:34;;;;;;;26.92;13.70;;;-5.70;58.60;;;;;;5092789;28;20666;-68
2021/01/11 02:41:04;;;;;;;30.70;13.50;;;-5.80;58.50;;;;;;5093848;28;20702;-67
2021/01/11 02:43:31;;;;;;;25.50;13.32;;;-5.90;58.50;;;;;;5074919;28;20210;-66
2021/01/11 02:45:59;;;;;;;25.27;13.13;;;-6.10;58.00;;;;;;5073705;28;20276;-67
2021/01/11 02:48:29;;;;;;;21.55;10.95;;;-6.10;58.00;;;;;;5090299;28;20192;-66
2021/01/11 02:51:13;;;;;;;38.22;14.32;;;-6.10;58.00;;;;;;5093836;28;20200;-66
2021/01/11 02:53:48;;;;;;;28.83;13.40;;;-6.20;58.00;;;;;;5074887;28;20193;-67
2021/01/11 02:56:31;;;;;;;22.73;11.75;;;-6.20;58.80;;;;;;5073292;28;20651;-67
2021/01/11 02:59:08;;;;;;;22.23;11.43;;;-6.10;59.20;;;;;;5073271;28;20189;-66
2021/01/11 03:01:49;;;;;;;21.02;12.82;;;-6.20;59.70;;;;;;5073008;28;20208;-68
2021/01/11 03:04:26;;;;;;;22.30;10.68;;;-6.20;59.40;;;;;;5093316;28;20246;-67
2021/01/11 03:07:02;;;;;;;24.48;12.20;;;-6.20;59.20;;;;;;5090524;28;20242;-67
2021/01/11 03:09:30;;;;;;;27.75;12.52;;;-6.30;59.10;;;;;;5073271;28;20581;-68
2021/01/11 03:11:58;;;;;;;25.40;14.88;;;-6.30;58.90;;;;;;5075624;28;20281;-67
2021/01/11 03:14:25;;;;;;;26.52;12.88;;;-6.40;59.10;;;;;;5093076;28;20706;-67
2021/01/11 03:16:54;;;;;;;26.20;13.07;;;-6.30;59.60;;;;;;5087374;28;20186;-67
2021/01/11 03:19:26;;;;;;;21.15;12.00;;;-6.20;59.70;;;;;;5093353;28;20200;-67
2021/01/11 03:21:53;;;;;;;32.65;14.10;;;-6.30;58.50;;;;;;5080371;28;20236;-66
2021/01/11 03:24:22;;;;;;;19.02;12.45;;;-6.30;58.50;;;;;;5072875;28;20614;-71
2021/01/11 03:26:58;;;;;;;23.35;12.80;;;-6.20;58.50;;;;;;5052784;28;20229;-66
2021/01/11 03:29:28;;;;;;;25.15;14.80;;;-6.20;58.40;;;;;;5052694;28;20190;-67
2021/01/11 03:31:56;;;;;;;28.20;15.15;;;-6.20;58.30;;;;;;5052684;28;20191;-66
2021/01/11 03:34:25;;;;;;;22.88;13.05;;;-6.20;58.20;;;;;;5078583;28;20224;-66
2021/01/11 03:36:57;;;;;;;27.65;12.52;;;-6.20;58.10;;;;;;5092844;28;20205;-66
2021/01/11 03:39:24;;;;;;;31.30;14.82;;;-6.20;58.00;;;;;;5079788;28;20279;-66
2021/01/11 03:41:51;;;;;;;30.40;13.70;;;-6.20;58.10;;;;;;5072311;28;21039;-66
2021/01/11 03:44:18;;;;;;;29.20;13.43;;;-6.20;57.70;;;;;;5083411;28;20272;-67
2021/01/11 03:46:45;;;;;;;23.10;13.93;;;-6.20;57.70;;;;;;5092580;28;20185;-67
2021/01/11 03:49:13;;;;;;;28.33;13.68;;;-6.30;57.60;;;;;;5082303;28;20272;-67
2021/01/11 03:51:39;;;;;;;29.85;14.88;;;-6.20;57.50;;;;;;5072179;28;20194;-67
2021/01/11 03:54:08;;;;;;;32.30;15.27;;;-6.20;57.50;;;;;;5080287;28;20692;-67
2021/01/11 03:56:36;;;;;;;27.70;14.57;;;-6.20;57.40;;;;;;5092085;28;20190;-67
2021/01/11 03:59:04;;;;;;;31.00;16.17;;;-6.20;57.40;;;;;;5084643;28;20671;-67
2021/01/11 04:01:35;;;;;;;34.25;14.68;;;-6.20;56.60;;;;;;5081248;28;20189;-68
2021/01/11 04:04:04;;;;;;;28.48;15.00;;;-6.20;57.20;;;;;;5086106;28;20619;-67
2021/01/11 04:06:32;;;;;;;26.60;15.20;;;-6.20;56.90;;;;;;5072767;28;20282;-72
2021/01/11 04:09:00;;;;;;;31.25;14.90;;;-6.20;57.20;;;;;;5077937;28;20631;-66
2021/01/11 04:11:27;;;;;;;35.22;19.45;;;-6.20;57.00;;;;;;5092287;28;20673;-67
2021/01/11 04:13:59;;;;;;;56.72;22.40;;;-6.20;56.80;;;;;;5087737;28;20181;-67
2021/01/11 04:16:26;;;;;;;46.60;20.58;;;-6.20;56.70;;;;;;5073404;28;20197;-70
2021/01/11 04:18:52;;;;;;;29.20;15.48;;;-6.20;56.20;;;;;;5056772;28;20595;-67
2021/01/11 04:21:19;;;;;;;31.38;15.82;;;-6.20;56.00;;;;;;5056768;28;20544;-71
2021/01/11 04:23:47;;;;;;;33.25;16.92;;;-6.20;56.20;;;;;;5094178;28;20690;-67
2021/01/11 04:26:16;;;;;;;27.95;15.15;;;-6.30;56.60;;;;;;5096768;28;20199;-66
2021/01/11 04:28:43;;;;;;;20.60;13.00;;;-6.40;57.10;;;;;;5078301;28;20186;-66
2021/01/11 04:31:10;;;;;;;30.48;14.10;;;-6.40;56.90;;;;;;5076216;28;20197;-67
2021/01/11 04:33:37;;;;;;;27.58;13.18;;;-6.40;56.50;;;;;;5092742;28;20303;-66
2021/01/11 04:36:04;;;;;;;26.98;15.02;;;-6.40;56.50;;;;;;5096606;28;20193;-66
2021/01/11 04:38:33;;;;;;;21.58;11.60;;;-6.40;56.30;;;;;;5080856;28;20393;-66
2021/01/11 04:41:02;;;;;;;20.58;12.43;;;-6.40;56.30;;;;;;5076386;28;20190;-68
2021/01/11 04:43:35;;;;;;;22.25;11.57;;;-6.50;56.60;;;;;;5090296;28;20212;-66
2021/01/11 04:46:04;;;;;;;24.20;12.68;;;-6.60;56.70;;;;;;5096482;28;20186;-66
2021/01/11 04:48:33;;;;;;;20.73;11.82;;;-6.60;56.50;;;;;;5081708;28;20348;-66
2021/01/11 04:51:02;;;;;;;23.58;13.35;;;-6.70;57.00;;;;;;5075948;28;20643;-68
2021/01/11 04:53:29;;;;;;;29.77;15.45;;;-6.70;57.00;;;;;;5088867;28;20655;-66
2021/01/11 04:56:02;;;;;;;19.98;10.60;;;-6.80;57.00;;;;;;5096633;28;20585;-66
2021/01/11 04:58:56;;;;;;;20.30;11.00;;;-6.80;56.80;;;;;;5083086;28;20335;-67
2021/01/11 05:01:25;;;;;;;23.83;12.10;;;-6.90;56.50;;;;;;5079085;28;20318;-66
2021/01/11 05:03:52;;;;;;;31.13;11.02;;;-6.90;57.00;;;;;;5086527;28;20372;-66
2021/01/11 05:06:19;;;;;;;22.30;12.05;;;-7.00;57.20;;;;;;5078098;28;20193;-66
2021/01/11 05:08:48;;;;;;;21.80;9.75;;;-7.00;57.80;;;;;;5096202;28;20254;-66
2021/01/11 05:11:19;;;;;;;20.10;11.55;;;-6.90;58.00;;;;;;5094095;28;20238;-67
2021/01/11 05:13:51;;;;;;;18.98;11.48;;;-6.80;58.20;;;;;;5075492;28;20600;-68
2021/01/11 05:16:22;;;;;;;20.38;11.13;;;-6.70;58.20;;;;;;5076154;28;20198;-66
2021/01/11 05:18:53;;;;;;;16.63;10.45;;;-6.60;58.20;;;;;;5095911;28;20276;-67
2021/01/11 05:21:44;;;;;;;23.02;11.73;;;-6.50;58.10;;;;;;5093963;28;21975;-67
2021/01/11 05:24:37;;;;;;;22.33;12.35;;;-6.40;58.10;;;;;;5095767;28;20208;-67
2021/01/11 05:27:06;;;;;;;23.35;10.75;;;-6.30;58.00;;;;;;5086724;28;20265;-67
2021/01/11 05:29:34;;;;;;;30.30;13.57;;;-6.20;58.20;;;;;;5075382;28;20198;-68
2021/01/11 05:32:04;;;;;;;28.13;15.02;;;-6.20;58.30;;;;;;5082380;28;20715;-66
2021/01/11 05:34:47;;;;;;;28.42;13.18;;;-6.20;58.80;;;;;;5095382;28;20308;-66
2021/01/11 05:37:32;;;;;;;28.90;13.13;;;-6.10;59.70;;;;;;5094201;28;20227;-67
2021/01/11 05:40:14;;;;;;;28.38;14.50;;;-6.00;60.00;;;;;;5084430;28;20213;-66
2021/01/11 05:42:43;;;;;;;30.08;14.07;;;-5.90;60.50;;;;;;5086560;28;20286;-66
2021/01/11 05:45:12;;;;;;;28.88;14.50;;;-5.90;60.70;;;;;;5092746;28;20189;-66
2021/01/11 05:48:07;;;;;;;29.33;16.08;;;-5.80;60.60;;;;;;5074942;28;20198;-66
2021/01/11 05:50:37;;;;;;;32.47;17.10;;;-5.70;60.60;;;;;;5079666;28;20611;-69
2021/01/11 05:53:04;;;;;;;32.35;15.40;;;-5.60;60.80;;;;;;5095076;28;20189;-71
2021/01/11 05:55:34;;;;;;;35.53;14.38;;;-5.60;60.70;;;;;;5091222;28;20194;-70
2021/01/11 05:58:04;;;;;;;28.50;16.75;;;-5.50;61.20;;;;;;5074864;28;20212;-70
2021/01/11 06:00:33;;;;;;;30.92;13.82;;;-5.50;61.40;;;;;;5077439;28;20189;-73
2021/01/11 06:03:04;;;;;;;25.83;14.02;;;-5.40;61.90;;;;;;5095041;28;20221;-70
2021/01/11 06:05:32;;;;;;;27.40;14.13;;;-5.40;62.00;;;;;;5078035;28;20193;-69
2021/01/11 06:08:03;;;;;;;35.75;14.05;;;-5.30;62.00;;;;;;5074781;28;20200;-69
2021/01/11 06:10:30;;;;;;;37.30;15.13;;;-5.30;62.00;;;;;;5087926;28;20643;-69
2021/01/11 06:12:59;;;;;;;31.17;15.18;;;-5.30;62.00;;;;;;5094966;28;20193;-69
2021/01/11 06:15:28;;;;;;;36.95;12.68;;;-5.30;62.20;;;;;;5079752;28;20243;-68
2021/01/11 06:17:57;;;;;;;29.20;15.40;;;-5.20;62.50;;;;;;5074352;28;20229;-69
2021/01/11 06:20:25;;;;;;;26.90;13.35;;;-5.20;62.60;;;;;;5087245;28;20639;-69
2021/01/11 06:23:32;;;;;;;28.27;14.15;;;-5.10;62.30;;;;;;5094326;28;20224;-69
2021/01/11 06:25:58;;;;;;;26.02;12.77;;;-5.10;62.70;;;;;;5076343;28;20186;-69
2021/01/11 06:28:31;;;;;;;31.65;13.93;;;-5.10;62.70;;;;;;5074078;28;20197;-69
2021/01/11 06:31:12;;;;;;;28.30;14.70;;;-5.10;62.80;;;;;;5091132;28;20217;-70
2021/01/11 06:33:40;;;;;;;37.55;16.02;;;-5.10;62.80;;;;;;5084677;28;20229;-68
2021/01/11 06:36:23;;;;;;;31.05;14.30;;;-5.00;63.30;;;;;;5074135;28;20197;-69
2021/01/11 06:38:51;;;;;;;26.48;13.27;;;-5.00;63.30;;;;;;5082891;28;20185;-69
2021/01/11 06:41:19;;;;;;;34.15;14.40;;;-4.90;63.30;;;;;;5087094;28;20554;-73
2021/01/11 06:43:50;;;;;;;35.55;15.13;;;-4.80;63.60;;;;;;5035879;28;20218;-70
2021/01/11 06:46:48;;;;;;;28.85;15.82;;;-4.70;63.30;;;;;;5029433;28;20252;-77
2021/01/11 06:49:26;;;;;;;31.80;13.25;;;-4.70;63.10;;;;;;5023036;28;20210;-77
2021/01/11 06:52:04;;;;;;;29.83;13.75;;;-4.60;63.10;;;;;;5042017;28;20225;-69
2021/01/11 06:54:43;;;;;;;24.13;11.98;;;-4.60;63.20;;;;;;5028056;28;20220;-69
2021/01/11 06:57:13;;;;;;;22.67;12.38;;;-4.50;63.30;;;;;;5035573;28;20655;-71
2021/01/11 06:59:41;;;;;;;28.67;12.63;;;-4.50;63.20;;;;;;5036730;28;23780;-69
2021/01/11 07:02:30;;;;;;;29.30;13.38;;;-4.50;64.20;;;;;;5038226;28;20190;-73
2021/01/11 07:05:00;;;;;;;26.50;12.57;;;-4.40;65.30;;;;;;5042660;28;20652;-70
2021/01/11 07:07:27;;;;;;;28.50;13.02;;;-4.40;65.50;;;;;;5024174;28;20213;-70
2021/01/11 07:09:58;;;;;;;28.70;14.23;;;-4.30;65.90;;;;;;5042889;28;20204;-72
2021/01/11 07:12:27;;;;;;;26.30;13.65;;;-4.30;67.20;;;;;;5025228;28;20206;-70
2021/01/11 07:15:00;;;;;;;26.70;12.13;;;-4.20;66.60;;;;;;5039134;28;20224;-70
2021/01/11 07:17:40;;;;;;;26.55;11.77;;;-4.20;66.90;;;;;;5027414;28;20198;-70
2021/01/11 07:20:09;;;;;;;31.58;13.80;;;-4.20;67.40;;;;;;5036140;28;20648;-78
2021/01/11 07:22:38;;;;;;;27.23;12.73;;;-4.20;67.80;;;;;;5027740;28;20226;-70
2021/01/11 07:25:16;;;;;;;21.90;12.35;;;-4.20;68.10;;;;;;5039026;28;20276;-75
2021/01/11 07:27:43;;;;;;;25.67;13.82;;;-4.10;67.80;;;;;;5036069;28;20711;-70
2021/01/11 07:30:11;;;;;;;28.25;14.98;;;-4.10;67.40;;;;;;5031165;28;20201;-78
2021/01/11 07:32:40;;;;;;;27.73;13.88;;;-4.10;67.20;;;;;;5033765;28;20217;-70
2021/01/11 07:35:08;;;;;;;28.48;14.10;;;-4.00;67.50;;;;;;5036756;28;20220;-77
2021/01/11 07:37:36;;;;;;;27.95;13.95;;;-4.00;67.30;;;;;;5027457;28;20252;-70
2021/01/11 07:40:07;;;;;;;25.02;12.93;;;-3.90;68.00;;;;;;5039845;28;20193;-70
2021/01/11 07:42:34;;;;;;;30.02;15.73;;;-4.00;66.70;;;;;;5060632;28;20218;-71
2021/01/11 07:45:07;;;;;;;27.63;15.65;;;-4.00;67.10;;;;;;5043709;28;20289;-70
2021/01/11 07:47:33;;;;;;;25.40;12.43;;;-3.90;66.60;;;;;;5030315;28;21770;-70
2021/01/11 07:50:01;;;;;;;23.67;12.43;;;-3.90;66.50;;;;;;5045000;28;20250;-72
2021/01/11 07:52:29;;;;;;;25.30;13.40;;;-3.80;66.30;;;;;;5025275;28;20303;-70
2021/01/11 07:55:03;;;;;;;27.10;15.15;;;-3.80;65.50;;;;;;5037856;28;20198;-71
2021/01/11 07:57:32;;;;;;;31.15;14.90;;;-3.70;65.10;;;;;;5020506;28;20304;-72
2021/01/11 08:00:00;;;;;;;25.05;12.85;;;-3.70;65.30;;;;;;5035738;28;20541;-70
2021/01/11 08:02:27;;;;;;;23.73;12.30;;;-3.80;65.40;;;;;;5025953;28;20218;-70
2021/01/11 08:04:54;;;;;;;24.90;15.30;;;-3.70;65.40;;;;;;5035862;28;20202;-70
2021/01/11 08:07:29;;;;;;;27.85;15.02;;;-3.70;65.40;;;;;;5028878;28;20292;-71
2021/01/11 08:09:56;;;;;;;23.52;12.43;;;-3.70;65.40;;;;;;5036796;28;20698;-71
2021/01/11 08:12:25;;;;;;;29.02;13.35;;;-3.60;65.30;;;;;;5027273;28;20220;-70
2021/01/11 08:15:00;;;;;;;24.02;14.25;;;-3.60;65.20;;;;;;5045221;28;20586;-71
2021/01/11 08:17:29;;;;;;;24.42;14.32;;;-3.60;64.70;;;;;;5025803;28;25144;-70
2021/01/11 08:19:57;;;;;;;25.60;12.95;;;-3.60;65.30;;;;;;5043168;28;20648;-72
2021/01/11 08:22:25;;;;;;;28.20;12.85;;;-3.60;64.70;;;;;;5024893;28;20220;-70
2021/01/11 08:24:53;;;;;;;22.48;12.00;;;-3.60;64.50;;;;;;5043548;28;20193;-70
2021/01/11 08:27:26;;;;;;;27.25;14.52;;;-3.50;64.40;;;;;;5028636;28;20209;-77
2021/01/11 08:29:53;;;;;;;21.95;11.85;;;-3.40;64.40;;;;;;5042218;28;20604;-72
2021/01/11 08:32:22;;;;;;;23.48;12.07;;;-3.40;63.60;;;;;;5028225;28;20208;-77
2021/01/11 08:34:48;;;;;;;26.75;14.77;;;-3.30;63.60;;;;;;5043206;28;20224;-70
2021/01/11 08:37:31;;;;;;;26.20;16.58;;;-3.30;63.40;;;;;;5033533;28;20705;-74
2021/01/11 08:40:00;;;;;;;28.25;12.70;;;-3.20;63.80;;;;;;5042655;28;20210;-70
2021/01/11 08:42:30;;;;;;;25.75;12.27;;;-3.20;62.90;;;;;;5026763;28;20241;-70
2021/01/11 08:45:27;;;;;;;25.27;12.65;;;-3.10;61.50;;;;;;5044032;28;20604;-70
2021/01/11 08:48:07;;;;;;;25.08;11.82;;;-3.20;62.20;;;;;;5038095;28;20224;-70
2021/01/11 08:50:35;;;;;;;28.45;12.68;;;-3.20;62.10;;;;;;5031686;28;20274;-70
2021/01/11 08:53:20;;;;;;;26.77;13.07;;;-3.30;60.90;;;;;;5042270;28;20202;-70
2021/01/11 08:56:01;;;;;;;22.83;13.48;;;-3.30;62.20;;;;;;5041245;28;20696;-71
2021/01/11 08:58:28;;;;;;;18.90;11.52;;;-3.20;62.10;;;;;;5027898;28;20465;-70
2021/01/11 09:01:11;;;;;;;24.02;13.38;;;-3.40;61.20;;;;;;5025349;28;20204;-76
2021/01/11 09:03:47;;;;;;;19.92;12.35;;;-3.60;61.30;;;;;;5044293;28;22076;-71
2021/01/11 09:06:35;;;;;;;25.80;11.73;;;-3.70;63.00;;;;;;5029479;28;20908;-70
2021/01/11 09:09:11;;;;;;;21.52;12.25;;;-3.60;63.20;;;;;;5045420;28;20209;-72
2021/01/11 09:11:41;;;;;;;19.63;10.98;;;-3.50;63.00;;;;;;5036339;28;20209;-69
2021/01/11 09:14:09;;;;;;;25.48;12.73;;;-3.40;63.10;;;;;;5042543;28;20727;-77
2021/01/11 09:16:37;;;;;;;30.85;13.60;;;-3.20;63.40;;;;;;5037843;28;20206;-71
2021/01/11 09:19:08;;;;;;;22.75;12.52;;;-3.20;63.10;;;;;;5038990;28;20645;-69
2021/01/11 09:21:35;;;;;;;20.23;12.63;;;-3.00;63.40;;;;;;5035332;28;20290;-70
2021/01/11 09:24:02;;;;;;;21.90;12.95;;;-2.90;62.10;;;;;;5045422;28;20691;-70
2021/01/11 09:26:33;;;;;;;21.95;13.07;;;-2.80;62.70;;;;;;5028959;28;20206;-70
2021/01/11 09:29:01;;;;;;;33.60;18.65;;;-2.70;62.00;;;;;;5042675;28;20244;-70
2021/01/11 09:31:28;;;;;;;52.95;23.67;;;-2.70;59.80;;;;;;5024841;28;23474;-71
2021/01/11 09:33:54;;;;;;;31.00;15.32;;;-2.70;59.70;;;;;;5037995;28;20579;-71
2021/01/11 09:36:21;;;;;;;24.40;14.02;;;-2.80;59.20;;;;;;5027009;28;20249;-71
2021/01/11 09:38:49;;;;;;;21.95;13.63;;;-2.80;59.90;;;;;;5045289;28;20220;-69
2021/01/11 09:41:16;;;;;;;25.75;11.55;;;-2.80;60.20;;;;;;5035651;28;20203;-75
2021/01/11 09:43:43;;;;;;;24.05;12.60;;;-2.90;59.60;;;;;;5040914;28;20210;-70
2021/01/11 09:46:11;;;;;;;27.20;12.50;;;-2.80;60.50;;;;;;5038624;28;20202;-73
2021/01/11 09:48:38;;;;;;;20.83;12.13;;;-2.80;60.60;;;;;;5038626;28;21099;-71
2021/01/11 09:51:05;;;;;;;28.73;15.02;;;-2.70;61.00;;;;;;5043712;28;20186;-75
2021/01/11 09:53:32;;;;;;;19.75;12.77;;;-2.60;60.90;;;;;;5035564;28;20854;-72
2021/01/11 09:55:59;;;;;;;28.33;15.43;;;-2.60;60.70;;;;;;5045372;28;20186;-70
2021/01/11 09:58:26;;;;;;;26.33;14.07;;;-2.60;61.00;;;;;;5032483;28;20197;-70
2021/01/11 10:00:52;;;;;;;24.95;14.13;;;-2.50;60.20;;;;;;5042567;28;20209;-71
2021/01/11 10:03:22;;;;;;;26.85;15.07;;;-2.40;60.50;;;;;;5032030;28;20236;-77
2021/01/11 10:05:56;;;;;;;26.00;14.18;;;-2.30;60.40;;;;;;5042886;28;20244;-71
2021/01/11 10:08:22;;;;;;;20.90;11.45;;;-2.20;59.80;;;;;;5029291;28;20242;-70
2021/01/11 10:10:49;;;;;;;26.17;13.27;;;-2.10;60.30;;;;;;5042206;28;20221;-70
2021/01/11 10:13:16;;;;;;;25.15;13.93;;;-1.90;59.90;;;;;;5032697;28;20290;-77
2021/01/11 10:15:42;;;;;;;27.27;14.60;;;-1.90;59.60;;;;;;5039769;28;20653;-70
2021/01/11 10:18:12;;;;;;;28.20;14.50;;;-1.80;58.80;;;;;;5039426;28;20695;-78
2021/01/11 10:20:43;;;;;;;25.63;14.90;;;-1.80;58.50;;;;;;5039926;28;20191;-71
2021/01/11 10:23:09;;;;;;;22.33;13.38;;;-1.80;58.40;;;;;;5039082;28;20225;-73
2021/01/11 10:25:36;;;;;;;25.70;14.98;;;-1.80;58.40;;;;;;5037274;28;20294;-70
2021/01/11 10:28:03;;;;;;;22.85;15.23;;;-1.80;58.00;;;;;;5046985;28;20198;-70
2021/01/11 10:30:30;;;;;;;26.25;15.45;;;-1.70;58.40;;;;;;5031338;28;21166;-70
2021/01/11 10:32:57;;;;;;;36.13;19.55;;;-1.40;58.70;;;;;;5043494;28;20636;-70
2021/01/11 10:35:24;;;;;;;21.95;15.35;;;-1.00;58.30;;;;;;5029255;28;20233;-70
2021/01/11 10:37:56;;;;;;;24.40;13.30;;;-0.80;57.00;;;;;;5045800;28;20194;-70
2021/01/11 10:40:23;;;;;;;28.58;15.38;;;-0.80;55.80;;;;;;5030328;28;20236;-73
2021/01/11 10:42:50;;;;;;;25.85;13.85;;;-0.80;55.40;;;;;;5045999;28;20707;-70
2021/01/11 10:45:18;;;;;;;25.70;13.57;;;-0.70;55.10;;;;;;5034995;28;20212;-75
2021/01/11 10:47:53;;;;;;;29.35;14.90;;;-0.70;55.00;;;;;;5047362;28;20201;-71
2021/01/11 10:50:20;;;;;;;24.90;13.93;;;-0.60;54.80;;;;;;5029965;28;20205;-77
2021/01/11 10:52:46;;;;;;;25.48;13.88;;;-0.40;54.70;;;;;;5041872;28;20213;-70
2021/01/11 10:55:14;;;;;;;28.92;14.05;;;0.10;55.50;;;;;;5036279;28;20201;-76
2021/01/11 10:57:41;;;;;;;22.38;13.75;;;0.70;53.90;;;;;;5038331;28;20567;-70
2021/01/11 11:00:12;;;;;;;29.45;15.00;;;1.40;53.60;;;;;;5036090;28;20233;-77
2021/01/11 11:02:39;;;;;;;25.88;14.50;;;2.20;51.20;;;;;;5033954;28;20317;-71
2021/01/11 11:05:07;;;;;;;27.38;15.93;;;2.60;50.00;;;;;;5042421;28;20208;-75
2021/01/11 11:07:36;;;;;;;27.58;15.30;;;3.20;49.40;;;;;;5029291;28;20205;-68
2021/01/11 11:10:05;;;;;;;26.13;16.42;;;4.10;47.60;;;;;;5040374;28;20206;-69
2021/01/11 11:12:32;;;;;;;27.48;15.00;;;5.00;45.00;;;;;;5027984;28;20206;-68
2021/01/11 11:15:00;;;;;;;22.95;14.00;;;5.90;43.80;;;;;;5038176;28;20210;-68
2021/01/11 11:17:29;;;;;;;21.33;12.90;;;6.30;41.00;;;;;;5028764;28;20921;-70
2021/01/11 11:19:56;;;;;;;21.20;12.60;;;6.90;39.60;;;;;;5042425;28;20672;-68
2021/01/11 11:22:23;;;;;;;22.50;14.80;;;7.20;36.70;;;;;;5025175;28;20205;-72
2021/01/11 11:24:50;;;;;;;23.65;15.30;;;7.30;36.40;;;;;;5041538;28;20537;-70
2021/01/11 11:27:16;;;;;;;19.58;13.35;;;7.70;35.40;;;;;;5038847;28;20208;-76
2021/01/11 11:29:44;;;;;;;31.25;14.48;;;8.00;34.70;;;;;;5039166;28;20252;-70
2021/01/11 11:32:11;;;;;;;26.60;16.75;;;8.00;34.00;;;;;;5037063;28;20200;-76
2021/01/11 11:34:38;;;;;;;21.88;14.80;;;8.20;33.70;;;;;;5040488;28;20955;-70
2021/01/11 11:37:04;;;;;;;23.83;14.70;;;8.50;33.20;;;;;;5044476;28;20255;-77
2021/01/11 11:39:31;;;;;;;27.05;15.60;;;8.70;32.70;;;;;;5033762;28;20305;-70
2021/01/11 11:41:59;;;;;;;24.67;15.15;;;8.60;32.30;;;;;;5041738;28;20197;-71
2021/01/11 11:44:27;;;;;;;26.42;16.27;;;9.00;33.90;;;;;;5026971;28;20218;-70
2021/01/11 11:46:54;;;;;;;21.70;14.63;;;9.50;31.90;;;;;;5042237;28;20201;-70
2021/01/11 11:49:33;;;;;;;21.50;13.95;;;9.50;31.60;;;;;;5032674;28;20201;-71
2021/01/11 11:52:02;;;;;;;26.25;15.30;;;9.50;31.40;;;;;;5037699;28;20664;-70
2021/01/11 11:54:29;;;;;;;25.67;15.02;;;9.30;31.70;;;;;;5031396;28;20202;-70
2021/01/11 11:56:55;;;;;;;26.33;15.48;;;9.50;31.70;;;;;;5044198;28;20197;-70
2021/01/11 11:59:22;;;;;;;24.38;16.98;;;9.80;30.90;;;;;;5030647;28;20212;-71
2021/01/11 12:01:55;;;;;;;25.75;18.50;;;10.00;30.20;;;;;;5038998;28;20285;-69
2021/01/11 12:04:22;;;;;;;21.45;15.38;;;9.60;30.00;;;;;;5031551;28;20230;-71
2021/01/11 12:07:13;;;;;;;27.23;16.58;;;9.30;30.50;;;;;;5039988;28;20221;-74
2021/01/11 12:09:46;;;;;;;25.70;15.32;;;8.80;31.10;;;;;;5037164;28;20206;-71
2021/01/11 12:12:14;;;;;;;22.73;16.08;;;8.90;32.00;;;;;;5033409;28;20660;-76
2021/01/11 12:14:40;;;;;;;27.35;17.40;;;9.30;30.90;;;;;;5035050;28;20221;-69
2021/01/11 12:17:09;;;;;;;26.52;16.33;;;9.40;30.00;;;;;;5038061;28;20278;-73
2021/01/11 12:19:36;;;;;;;24.23;16.33;;;9.50;29.90;;;;;;5032783;28;20210;-70
2021/01/11 12:22:05;;;;;;;22.42;15.95;;;9.60;29.70;;;;;;5039993;28;20198;-71
2021/01/11 12:24:33;;;;;;;25.88;16.00;;;9.70;29.10;;;;;;5031191;28;20229;-72
2021/01/11 12:27:05;;;;;;;24.65;14.70;;;9.50;29.60;;;;;;5037688;28;20219;-71
2021/01/11 12:29:31;;;;;;;26.50;16.10;;;9.30;29.30;;;;;;5025107;28;20205;-70
2021/01/11 12:32:03;;;;;;;24.48;15.75;;;9.10;29.80;;;;;;5036281;28;20323;-71
2021/01/11 12:34:33;;;;;;;25.67;17.30;;;8.70;30.00;;;;;;5024364;28;21061;-70
2021/01/11 12:37:01;;;;;;;25.90;16.25;;;8.50;30.60;;;;;;5036956;28;20202;-70
2021/01/11 12:39:29;;;;;;;23.25;15.10;;;8.40;31.00;;;;;;5028934;28;21024;-70
2021/01/11 12:41:55;;;;;;;27.48;15.30;;;8.20;30.80;;;;;;5040196;28;20208;-70
2021/01/11 12:44:22;;;;;;;27.00;17.13;;;8.30;30.80;;;;;;5028743;28;20228;-73
2021/01/11 12:46:53;;;;;;;30.88;17.10;;;8.20;31.00;;;;;;5040215;28;20626;-70